Terminal Aerodrome Forecast
Issued by NWS

Home | Current Version | Previous Version | Text Only | Print | Product List | Glossary On
Versions: 1 2 3 4 5 6 7 8 9 10 11 12 13 14 15
000
FTUS43 KMPX 141100
TAFRWF
TAF
KRWF 141135Z 1412/1512 31011KT P6SM OVC070
     FM141400 33016G24KT P6SM BKN050
     FM141600 32020G30KT P6SM BKN030
     FM142000 33018G26KT P6SM SCT030 BKN060
     FM150300 32009KT P6SM SCT060=

USA.gov is the U.S. government's official web portal to all federal, state and local government web resources and services.